sensor_id;sensor_type;location;lat;lon;timestamp;temperature;humidity
38118;DHT22;23928;47.562;7.508;2023-04-24T00:02:08;10.70;99.90
38118;DHT22;23928;47.562;7.508;2023-04-24T00:04:36;10.90;99.90
38118;DHT22;23928;47.562;7.508;2023-04-24T00:07:06;10.80;99.90
38118;DHT22;23928;47.562;7.508;2023-04-24T00:09:32;10.90;99.90
38118;DHT22;23928;47.562;7.508;2023-04-24T00:11:58;11.00;99.90
38118;DHT22;23928;47.562;7.508;2023-04-24T00:14:24;11.00;99.90
38118;DHT22;23928;47.562;7.508;2023-04-24T00:16:49;11.00;99.90
38118;DHT22;23928;47.562;7.508;2023-04-24T00:19:15;11.00;99.90
38118;DHT22;23928;47.562;7.508;2023-04-24T00:21:41;10.80;99.90
38118;DHT22;23928;47.562;7.508;2023-04-24T00:24:07;10.90;99.90
38118;DHT22;23928;47.562;7.508;2023-04-24T00:26:34;10.70;99.90
38118;DHT22;23928;47.562;7.508;2023-04-24T00:29:00;10.70;99.90
38118;DHT22;23928;47.562;7.508;2023-04-24T00:31:25;10.70;99.90
38118;DHT22;23928;47.562;7.508;2023-04-24T00:33:51;10.50;99.90
38118;DHT22;23928;47.562;7.508;2023-04-24T00:36:16;10.60;99.90
38118;DHT22;23928;47.562;7.508;2023-04-24T00:38:44;10.60;99.90
38118;DHT22;23928;47.562;7.508;2023-04-24T00:41:10;10.60;99.90
38118;DHT22;23928;47.562;7.508;2023-04-24T00:43:36;10.60;99.90
38118;DHT22;23928;47.562;7.508;2023-04-24T00:46:01;10.60;99.90
38118;DHT22;23928;47.562;7.508;2023-04-24T00:48:27;10.50;99.90
38118;DHT22;23928;47.562;7.508;2023-04-24T00:50:53;10.60;99.90
38118;DHT22;23928;47.562;7.508;2023-04-24T00:53:19;10.60;99.90
38118;DHT22;23928;47.562;7.508;2023-04-24T00:55:45;10.60;99.90
38118;DHT22;23928;47.562;7.508;2023-04-24T00:58:12;10.60;99.90
38118;DHT22;23928;47.562;7.508;2023-04-24T01:00:38;10.60;99.90
38118;DHT22;23928;47.562;7.508;2023-04-24T01:03:05;10.60;99.90
38118;DHT22;23928;47.562;7.508;2023-04-24T01:05:31;10.50;99.90
38118;DHT22;23928;47.562;7.508;2023-04-24T01:07:58;10.70;99.90
38118;DHT22;23928;47.562;7.508;2023-04-24T01:10:25;10.60;99.90
38118;DHT22;23928;47.562;7.508;2023-04-24T01:12:53;10.60;99.90
38118;DHT22;23928;47.562;7.508;2023-04-24T01:15:18;10.60;99.90
38118;DHT22;23928;47.562;7.508;2023-04-24T01:17:44;10.70;99.90
38118;DHT22;23928;47.562;7.508;2023-04-24T01:20:10;10.60;99.90
38118;DHT22;23928;47.562;7.508;2023-04-24T01:22:36;10.70;99.90
38118;DHT22;23928;47.562;7.508;2023-04-24T01:25:02;10.50;99.90
38118;DHT22;23928;47.562;7.508;2023-04-24T01:27:28;10.40;99.90
38118;DHT22;23928;47.562;7.508;2023-04-24T01:29:54;10.50;99.90
38118;DHT22;23928;47.562;7.508;2023-04-24T01:32:20;10.50;99.90
38118;DHT22;23928;47.562;7.508;2023-04-24T01:34:46;10.60;99.90
38118;DHT22;23928;47.562;7.508;2023-04-24T01:37:12;10.60;99.90
38118;DHT22;23928;47.562;7.508;2023-04-24T01:39:38;10.60;99.90
38118;DHT22;23928;47.562;7.508;2023-04-24T01:42:04;10.60;99.90
38118;DHT22;23928;47.562;7.508;2023-04-24T01:44:30;10.70;99.90
38118;DHT22;23928;47.562;7.508;2023-04-24T01:46:56;10.80;99.90
38118;DHT22;23928;47.562;7.508;2023-04-24T01:49:22;10.70;99.90
38118;DHT22;23928;47.562;7.508;2023-04-24T01:51:49;10.70;99.90
38118;DHT22;23928;47.562;7.508;2023-04-24T01:54:14;10.80;99.90
38118;DHT22;23928;47.562;7.508;2023-04-24T01:56:41;10.80;99.90
38118;DHT22;23928;47.562;7.508;2023-04-24T01:59:09;10.60;99.90
38118;DHT22;23928;47.562;7.508;2023-04-24T02:01:36;10.70;99.90
38118;DHT22;23928;47.562;7.508;2023-04-24T02:04:03;10.70;99.90
38118;DHT22;23928;47.562;7.508;2023-04-24T02:06:28;10.70;99.90
38118;DHT22;23928;47.562;7.508;2023-04-24T02:08:54;10.70;99.90
38118;DHT22;23928;47.562;7.508;2023-04-24T02:11:19;10.70;99.90
38118;DHT22;23928;47.562;7.508;2023-04-24T02:13:45;10.70;99.90
38118;DHT22;23928;47.562;7.508;2023-04-24T02:16:11;10.70;99.90
38118;DHT22;23928;47.562;7.508;2023-04-24T02:18:36;10.70;99.90
38118;DHT22;23928;47.562;7.508;2023-04-24T02:21:02;10.70;99.90
38118;DHT22;23928;47.562;7.508;2023-04-24T02:23:28;10.80;99.90
38118;DHT22;23928;47.562;7.508;2023-04-24T02:25:53;10.80;99.90
38118;DHT22;23928;47.562;7.508;2023-04-24T02:28:19;10.80;99.90
38118;DHT22;23928;47.562;7.508;2023-04-24T02:30:45;10.90;99.90
38118;DHT22;23928;47.562;7.508;2023-04-24T02:33:11;10.90;99.90
38118;DHT22;23928;47.562;7.508;2023-04-24T02:35:37;10.90;99.90
38118;DHT22;23928;47.562;7.508;2023-04-24T02:38:03;10.90;99.90
38118;DHT22;23928;47.562;7.508;2023-04-24T02:40:29;10.80;99.90
38118;DHT22;23928;47.562;7.508;2023-04-24T02:42:54;10.90;99.90
38118;DHT22;23928;47.562;7.508;2023-04-24T02:45:20;10.90;99.90
38118;DHT22;23928;47.562;7.508;2023-04-24T02:47:46;11.10;99.90
38118;DHT22;23928;47.562;7.508;2023-04-24T02:50:11;10.90;99.90
38118;DHT22;23928;47.562;7.508;2023-04-24T02:52:37;10.90;99.90
38118;DHT22;23928;47.562;7.508;2023-04-24T02:55:03;10.80;99.90
38118;DHT22;23928;47.562;7.508;2023-04-24T02:57:28;10.80;99.90
38118;DHT22;23928;47.562;7.508;2023-04-24T02:59:54;10.90;99.90
38118;DHT22;23928;47.562;7.508;2023-04-24T03:02:19;10.80;99.90
38118;DHT22;23928;47.562;7.508;2023-04-24T03:04:46;10.80;99.90
38118;DHT22;23928;47.562;7.508;2023-04-24T03:07:13;10.70;99.90
38118;DHT22;23928;47.562;7.508;2023-04-24T03:09:40;10.80;99.90
38118;DHT22;23928;47.562;7.508;2023-04-24T03:12:05;10.70;99.90
38118;DHT22;23928;47.562;7.508;2023-04-24T03:14:31;10.60;99.90
38118;DHT22;23928;47.562;7.508;2023-04-24T03:16:57;10.60;99.90
38118;DHT22;23928;47.562;7.508;2023-04-24T03:19:22;10.50;99.90
38118;DHT22;23928;47.562;7.508;2023-04-24T03:21:48;10.50;99.90
38118;DHT22;23928;47.562;7.508;2023-04-24T03:24:14;10.30;99.90
38118;DHT22;23928;47.562;7.508;2023-04-24T03:26:39;10.30;99.90
38118;DHT22;23928;47.562;7.508;2023-04-24T03:29:05;10.40;99.90
38118;DHT22;23928;47.562;7.508;2023-04-24T03:31:30;10.30;99.90
38118;DHT22;23928;47.562;7.508;2023-04-24T03:33:56;10.20;99.90
38118;DHT22;23928;47.562;7.508;2023-04-24T03:36:22;10.20;99.90
38118;DHT22;23928;47.562;7.508;2023-04-24T03:38:47;10.20;99.90
38118;DHT22;23928;47.562;7.508;2023-04-24T03:41:13;10.20;99.90
38118;DHT22;23928;47.562;7.508;2023-04-24T03:43:39;10.00;99.90
38118;DHT22;23928;47.562;7.508;2023-04-24T03:46:05;10.00;99.90
38118;DHT22;23928;47.562;7.508;2023-04-24T03:48:30;10.00;99.90
38118;DHT22;23928;47.562;7.508;2023-04-24T03:50:56;10.10;99.90
38118;DHT22;23928;47.562;7.508;2023-04-24T03:53:21;10.00;99.90
38118;DHT22;23928;47.562;7.508;2023-04-24T03:55:47;10.00;99.90
38118;DHT22;23928;47.562;7.508;2023-04-24T03:58:13;10.10;99.90
38118;DHT22;23928;47.562;7.508;2023-04-24T04:00:41;9.90;99.90
38118;DHT22;23928;47.562;7.508;2023-04-24T04:03:07;9.90;99.90
38118;DHT22;23928;47.562;7.508;2023-04-24T04:05:32;9.80;99.90
38118;DHT22;23928;47.562;7.508;2023-04-24T04:07:58;9.80;99.90
38118;DHT22;23928;47.562;7.508;2023-04-24T04:10:23;9.80;99.90
38118;DHT22;23928;47.562;7.508;2023-04-24T04:12:49;9.80;99.90
38118;DHT22;23928;47.562;7.508;2023-04-24T04:15:15;9.70;99.90
38118;DHT22;23928;47.562;7.508;2023-04-24T04:17:40;9.60;99.90
38118;DHT22;23928;47.562;7.508;2023-04-24T04:20:07;9.60;99.90
38118;DHT22;23928;47.562;7.508;2023-04-24T04:22:35;9.60;99.90
38118;DHT22;23928;47.562;7.508;2023-04-24T04:25:01;9.50;99.90
38118;DHT22;23928;47.562;7.508;2023-04-24T04:27:27;9.40;99.90
38118;DHT22;23928;47.562;7.508;2023-04-24T04:29:53;9.40;99.90
38118;DHT22;23928;47.562;7.508;2023-04-24T04:32:19;9.50;99.90
38118;DHT22;23928;47.562;7.508;2023-04-24T04:34:44;9.50;99.90
38118;DHT22;23928;47.562;7.508;2023-04-24T04:37:14;9.60;99.90
38118;DHT22;23928;47.562;7.508;2023-04-24T04:39:40;9.60;99.90
38118;DHT22;23928;47.562;7.508;2023-04-24T04:42:06;9.70;99.90
38118;DHT22;23928;47.562;7.508;2023-04-24T04:44:32;9.60;99.90
38118;DHT22;23928;47.562;7.508;2023-04-24T04:46:58;9.70;99.90
38118;DHT22;23928;47.562;7.508;2023-04-24T04:49:25;9.70;99.90
38118;DHT22;23928;47.562;7.508;2023-04-24T04:51:53;9.80;99.90
38118;DHT22;23928;47.562;7.508;2023-04-24T04:54:19;9.70;99.90
38118;DHT22;23928;47.562;7.508;2023-04-24T04:56:44;9.80;99.90
38118;DHT22;23928;47.562;7.508;2023-04-24T04:59:10;9.90;99.90
38118;DHT22;23928;47.562;7.508;2023-04-24T05:01:36;9.80;99.90
38118;DHT22;23928;47.562;7.508;2023-04-24T05:04:02;9.70;99.90
38118;DHT22;23928;47.562;7.508;2023-04-24T05:06:27;9.90;99.90
38118;DHT22;23928;47.562;7.508;2023-04-24T05:08:53;9.80;99.90
38118;DHT22;23928;47.562;7.508;2023-04-24T05:11:22;9.80;99.90
38118;DHT22;23928;47.562;7.508;2023-04-24T05:13:48;9.80;99.90
38118;DHT22;23928;47.562;7.508;2023-04-24T05:16:13;9.90;99.90
38118;DHT22;23928;47.562;7.508;2023-04-24T05:18:39;9.70;99.90
38118;DHT22;23928;47.562;7.508;2023-04-24T05:21:05;9.80;99.90
38118;DHT22;23928;47.562;7.508;2023-04-24T05:23:31;9.90;99.90
38118;DHT22;23928;47.562;7.508;2023-04-24T05:25:56;9.90;99.90
38118;DHT22;23928;47.562;7.508;2023-04-24T05:28:22;9.90;99.90
38118;DHT22;23928;47.562;7.508;2023-04-24T05:30:48;10.00;99.90
38118;DHT22;23928;47.562;7.508;2023-04-24T05:33:13;9.90;99.90
38118;DHT22;23928;47.562;7.508;2023-04-24T05:35:40;9.90;99.90
38118;DHT22;23928;47.562;7.508;2023-04-24T05:38:11;10.10;99.90
38118;DHT22;23928;47.562;7.508;2023-04-24T05:40:36;10.30;99.90
38118;DHT22;23928;47.562;7.508;2023-04-24T05:43:02;10.40;99.90
38118;DHT22;23928;47.562;7.508;2023-04-24T05:45:28;10.40;99.90
38118;DHT22;23928;47.562;7.508;2023-04-24T05:47:53;10.70;99.90
38118;DHT22;23928;47.562;7.508;2023-04-24T05:50:19;10.80;99.90
38118;DHT22;23928;47.562;7.508;2023-04-24T05:52:45;10.70;99.90
38118;DHT22;23928;47.562;7.508;2023-04-24T05:55:10;10.70;99.90
38118;DHT22;23928;47.562;7.508;2023-04-24T05:57:36;10.80;99.90
38118;DHT22;23928;47.562;7.508;2023-04-24T06:00:02;10.80;99.90
38118;DHT22;23928;47.562;7.508;2023-04-24T06:02:29;10.90;99.90
38118;DHT22;23928;47.562;7.508;2023-04-24T06:05:00;10.80;99.90
38118;DHT22;23928;47.562;7.508;2023-04-24T06:07:26;10.70;99.90
38118;DHT22;23928;47.562;7.508;2023-04-24T06:09:52;10.80;99.90
38118;DHT22;23928;47.562;7.508;2023-04-24T06:12:18;10.70;99.90
38118;DHT22;23928;47.562;7.508;2023-04-24T06:14:43;10.10;99.90
38118;DHT22;23928;47.562;7.508;2023-04-24T06:17:09;9.40;99.90
38118;DHT22;23928;47.562;7.508;2023-04-24T06:19:34;9.00;99.90
38118;DHT22;23928;47.562;7.508;2023-04-24T06:22:00;8.90;99.90
38118;DHT22;23928;47.562;7.508;2023-04-24T06:24:28;8.90;99.90
38118;DHT22;23928;47.562;7.508;2023-04-24T06:26:54;8.70;99.90
38118;DHT22;23928;47.562;7.508;2023-04-24T06:29:22;8.90;99.90
38118;DHT22;23928;47.562;7.508;2023-04-24T06:31:47;8.80;99.90
38118;DHT22;23928;47.562;7.508;2023-04-24T06:34:13;8.70;99.90
38118;DHT22;23928;47.562;7.508;2023-04-24T06:36:38;8.80;99.90
38118;DHT22;23928;47.562;7.508;2023-04-24T06:39:04;8.90;99.90
38118;DHT22;23928;47.562;7.508;2023-04-24T06:41:30;8.80;99.90
38118;DHT22;23928;47.562;7.508;2023-04-24T06:43:55;8.70;99.90
38118;DHT22;23928;47.562;7.508;2023-04-24T06:46:21;8.80;99.90
38118;DHT22;23928;47.562;7.508;2023-04-24T06:48:49;8.70;99.90
38118;DHT22;23928;47.562;7.508;2023-04-24T06:51:15;8.80;99.90
38118;DHT22;23928;47.562;7.508;2023-04-24T06:53:42;9.00;99.90
38118;DHT22;23928;47.562;7.508;2023-04-24T06:56:08;9.10;99.90
38118;DHT22;23928;47.562;7.508;2023-04-24T06:58:34;9.00;99.90
38118;DHT22;23928;47.562;7.508;2023-04-24T07:00:59;9.20;99.90
38118;DHT22;23928;47.562;7.508;2023-04-24T07:03:25;9.50;99.90
38118;DHT22;23928;47.562;7.508;2023-04-24T07:05:51;9.70;99.90
38118;DHT22;23928;47.562;7.508;2023-04-24T07:08:16;9.70;99.90
38118;DHT22;23928;47.562;7.508;2023-04-24T07:10:46;9.80;99.90
38118;DHT22;23928;47.562;7.508;2023-04-24T07:13:11;10.00;99.90
38118;DHT22;23928;47.562;7.508;2023-04-24T07:15:37;10.10;99.90
38118;DHT22;23928;47.562;7.508;2023-04-24T07:18:03;10.10;99.90
38118;DHT22;23928;47.562;7.508;2023-04-24T07:20:28;10.20;99.90
38118;DHT22;23928;47.562;7.508;2023-04-24T07:22:54;10.30;99.90
38118;DHT22;23928;47.562;7.508;2023-04-24T07:25:20;10.30;99.90
38118;DHT22;23928;47.562;7.508;2023-04-24T07:27:45;10.40;99.90
38118;DHT22;23928;47.562;7.508;2023-04-24T07:30:11;10.60;99.90
38118;DHT22;23928;47.562;7.508;2023-04-24T07:32:37;10.80;99.90
38118;DHT22;23928;47.562;7.508;2023-04-24T07:35:03;10.80;99.90
38118;DHT22;23928;47.562;7.508;2023-04-24T07:37:28;11.00;99.90
38118;DHT22;23928;47.562;7.508;2023-04-24T07:39:54;10.90;99.90
38118;DHT22;23928;47.562;7.508;2023-04-24T07:42:20;10.90;99.90
38118;DHT22;23928;47.562;7.508;2023-04-24T07:44:46;11.10;99.90
38118;DHT22;23928;47.562;7.508;2023-04-24T07:47:13;11.30;99.90
38118;DHT22;23928;47.562;7.508;2023-04-24T07:49:41;11.20;99.90
38118;DHT22;23928;47.562;7.508;2023-04-24T07:52:07;11.40;99.90
38118;DHT22;23928;47.562;7.508;2023-04-24T07:54:33;11.60;99.90
38118;DHT22;23928;47.562;7.508;2023-04-24T07:56:58;11.50;99.90
38118;DHT22;23928;47.562;7.508;2023-04-24T07:59:25;11.40;99.90
38118;DHT22;23928;47.562;7.508;2023-04-24T08:01:51;11.50;99.90
38118;DHT22;23928;47.562;7.508;2023-04-24T08:04:16;11.20;99.90
38118;DHT22;23928;47.562;7.508;2023-04-24T08:06:43;11.20;99.90
38118;DHT22;23928;47.562;7.508;2023-04-24T08:09:09;11.40;99.90
38118;DHT22;23928;47.562;7.508;2023-04-24T08:11:35;11.20;99.90
38118;DHT22;23928;47.562;7.508;2023-04-24T08:14:00;11.10;99.90
38118;DHT22;23928;47.562;7.508;2023-04-24T08:16:26;11.10;99.90
38118;DHT22;23928;47.562;7.508;2023-04-24T08:18:53;11.10;99.90
38118;DHT22;23928;47.562;7.508;2023-04-24T08:21:18;11.00;99.90
38118;DHT22;23928;47.562;7.508;2023-04-24T08:23:45;11.10;99.90
38118;DHT22;23928;47.562;7.508;2023-04-24T08:26:12;11.30;99.90
38118;DHT22;23928;47.562;7.508;2023-04-24T08:28:38;11.50;99.90
38118;DHT22;23928;47.562;7.508;2023-04-24T08:31:04;11.70;99.90
38118;DHT22;23928;47.562;7.508;2023-04-24T08:33:30;11.90;99.90
38118;DHT22;23928;47.562;7.508;2023-04-24T08:36:01;11.70;99.90
38118;DHT22;23928;47.562;7.508;2023-04-24T08:38:27;11.90;99.90
38118;DHT22;23928;47.562;7.508;2023-04-24T08:40:52;12.00;99.90
38118;DHT22;23928;47.562;7.508;2023-04-24T08:43:18;12.10;99.90
38118;DHT22;23928;47.562;7.508;2023-04-24T08:45:47;12.10;99.90
38118;DHT22;23928;47.562;7.508;2023-04-24T08:48:13;12.20;99.90
38118;DHT22;23928;47.562;7.508;2023-04-24T08:50:40;12.10;99.90
38118;DHT22;23928;47.562;7.508;2023-04-24T08:53:08;12.10;99.90
38118;DHT22;23928;47.562;7.508;2023-04-24T08:55:34;12.30;99.90
38118;DHT22;23928;47.562;7.508;2023-04-24T08:57:59;12.40;99.90
38118;DHT22;23928;47.562;7.508;2023-04-24T09:00:26;12.10;99.90
38118;DHT22;23928;47.562;7.508;2023-04-24T09:02:53;12.50;99.90
38118;DHT22;23928;47.562;7.508;2023-04-24T09:05:21;12.60;99.90
38118;DHT22;23928;47.562;7.508;2023-04-24T09:07:50;12.90;99.90
38118;DHT22;23928;47.562;7.508;2023-04-24T09:10:18;13.00;99.90
38118;DHT22;23928;47.562;7.508;2023-04-24T09:12:45;12.90;99.90
38118;DHT22;23928;47.562;7.508;2023-04-24T09:15:11;12.70;99.90
38118;DHT22;23928;47.562;7.508;2023-04-24T09:17:37;13.00;99.90
38118;DHT22;23928;47.562;7.508;2023-04-24T09:20:03;13.40;99.90
38118;DHT22;23928;47.562;7.508;2023-04-24T09:22:30;12.70;99.90
38118;DHT22;23928;47.562;7.508;2023-04-24T09:25:04;12.50;99.90
38118;DHT22;23928;47.562;7.508;2023-04-24T09:27:31;12.80;99.90
38118;DHT22;23928;47.562;7.508;2023-04-24T09:29:57;12.30;99.90
38118;DHT22;23928;47.562;7.508;2023-04-24T09:32:24;12.30;99.90
38118;DHT22;23928;47.562;7.508;2023-04-24T09:35:14;12.40;99.90
38118;DHT22;23928;47.562;7.508;2023-04-24T09:37:45;11.90;99.90
38118;DHT22;23928;47.562;7.508;2023-04-24T09:40:18;11.90;99.90
38118;DHT22;23928;47.562;7.508;2023-04-24T09:43:05;11.10;99.90
38118;DHT22;23928;47.562;7.508;2023-04-24T09:45:37;11.10;99.90
38118;DHT22;23928;47.562;7.508;2023-04-24T09:48:03;11.20;99.90
38118;DHT22;23928;47.562;7.508;2023-04-24T09:50:31;11.80;99.90
38118;DHT22;23928;47.562;7.508;2023-04-24T09:52:59;12.20;99.90
38118;DHT22;23928;47.562;7.508;2023-04-24T09:55:26;11.90;99.90
38118;DHT22;23928;47.562;7.508;2023-04-24T09:57:55;12.40;99.90
38118;DHT22;23928;47.562;7.508;2023-04-24T10:00:22;12.60;99.90
38118;DHT22;23928;47.562;7.508;2023-04-24T10:02:54;11.70;99.90
38118;DHT22;23928;47.562;7.508;2023-04-24T10:05:27;11.70;99.90
38118;DHT22;23928;47.562;7.508;2023-04-24T10:07:56;12.10;99.90
38118;DHT22;23928;47.562;7.508;2023-04-24T10:10:23;12.40;99.90
38118;DHT22;23928;47.562;7.508;2023-04-24T10:12:49;12.10;99.90
38118;DHT22;23928;47.562;7.508;2023-04-24T10:15:15;11.60;99.90
38118;DHT22;23928;47.562;7.508;2023-04-24T10:17:49;11.50;99.90
38118;DHT22;23928;47.562;7.508;2023-04-24T10:20:25;11.90;99.90
38118;DHT22;23928;47.562;7.508;2023-04-24T10:22:53;12.30;99.90
38118;DHT22;23928;47.562;7.508;2023-04-24T10:25:20;12.80;99.90
38118;DHT22;23928;47.562;7.508;2023-04-24T10:27:47;12.60;99.90
38118;DHT22;23928;47.562;7.508;2023-04-24T10:30:13;12.50;99.90
38118;DHT22;23928;47.562;7.508;2023-04-24T10:32:40;12.70;99.90
38118;DHT22;23928;47.562;7.508;2023-04-24T10:35:10;13.00;99.90
38118;DHT22;23928;47.562;7.508;2023-04-24T10:37:49;12.90;99.90
38118;DHT22;23928;47.562;7.508;2023-04-24T10:40:19;13.30;99.90
38118;DHT22;23928;47.562;7.508;2023-04-24T10:42:52;13.80;99.90
38118;DHT22;23928;47.562;7.508;2023-04-24T10:45:20;13.80;99.90
38118;DHT22;23928;47.562;7.508;2023-04-24T10:48:03;13.70;99.90
38118;DHT22;23928;47.562;7.508;2023-04-24T10:50:41;13.80;99.90
38118;DHT22;23928;47.562;7.508;2023-04-24T10:53:13;13.70;99.90
38118;DHT22;23928;47.562;7.508;2023-04-24T10:55:50;14.20;99.90
38118;DHT22;23928;47.562;7.508;2023-04-24T10:58:16;14.10;99.90
38118;DHT22;23928;47.562;7.508;2023-04-24T11:00:43;14.10;99.90
38118;DHT22;23928;47.562;7.508;2023-04-24T11:03:24;13.60;99.90
38118;DHT22;23928;47.562;7.508;2023-04-24T11:05:51;13.20;99.90
38118;DHT22;23928;47.562;7.508;2023-04-24T11:08:30;12.70;99.90
38118;DHT22;23928;47.562;7.508;2023-04-24T11:10:59;12.40;99.90
38118;DHT22;23928;47.562;7.508;2023-04-24T11:13:27;12.70;99.90
38118;DHT22;23928;47.562;7.508;2023-04-24T11:16:15;13.10;99.90
38118;DHT22;23928;47.562;7.508;2023-04-24T11:18:45;12.80;99.90
38118;DHT22;23928;47.562;7.508;2023-04-24T11:21:17;13.20;99.90
38118;DHT22;23928;47.562;7.508;2023-04-24T11:23:43;13.60;99.90
38118;DHT22;23928;47.562;7.508;2023-04-24T11:26:10;13.20;99.90
38118;DHT22;23928;47.562;7.508;2023-04-24T11:28:36;12.80;99.90
38118;DHT22;23928;47.562;7.508;2023-04-24T11:31:34;12.70;99.90
38118;DHT22;23928;47.562;7.508;2023-04-24T11:34:13;12.90;99.90
38118;DHT22;23928;47.562;7.508;2023-04-24T11:36:42;12.90;99.90
38118;DHT22;23928;47.562;7.508;2023-04-24T11:39:08;12.60;99.90
38118;DHT22;23928;47.562;7.508;2023-04-24T11:41:34;12.40;99.90
38118;DHT22;23928;47.562;7.508;2023-04-24T11:44:01;12.30;99.90
38118;DHT22;23928;47.562;7.508;2023-04-24T11:46:29;12.50;99.90
38118;DHT22;23928;47.562;7.508;2023-04-24T11:48:56;12.60;99.90
38118;DHT22;23928;47.562;7.508;2023-04-24T11:51:23;12.50;99.90
38118;DHT22;23928;47.562;7.508;2023-04-24T11:53:50;12.50;99.90
38118;DHT22;23928;47.562;7.508;2023-04-24T11:56:21;12.50;99.90
38118;DHT22;23928;47.562;7.508;2023-04-24T11:58:47;12.30;99.90
38118;DHT22;23928;47.562;7.508;2023-04-24T12:01:13;12.30;99.90
38118;DHT22;23928;47.562;7.508;2023-04-24T12:03:39;12.20;99.90
38118;DHT22;23928;47.562;7.508;2023-04-24T12:06:09;12.20;99.90
38118;DHT22;23928;47.562;7.508;2023-04-24T12:08:35;12.20;99.90
38118;DHT22;23928;47.562;7.508;2023-04-24T12:11:05;12.40;99.90
38118;DHT22;23928;47.562;7.508;2023-04-24T12:13:35;12.80;99.90
38118;DHT22;23928;47.562;7.508;2023-04-24T12:16:04;12.70;99.90
38118;DHT22;23928;47.562;7.508;2023-04-24T12:18:30;12.70;99.90
38118;DHT22;23928;47.562;7.508;2023-04-24T12:21:23;12.70;99.90
38118;DHT22;23928;47.562;7.508;2023-04-24T12:23:54;12.90;99.90
38118;DHT22;23928;47.562;7.508;2023-04-24T12:26:20;12.40;99.90
38118;DHT22;23928;47.562;7.508;2023-04-24T12:28:48;12.40;99.90
38118;DHT22;23928;47.562;7.508;2023-04-24T12:31:17;12.90;99.90
38118;DHT22;23928;47.562;7.508;2023-04-24T12:33:42;13.60;99.90
38118;DHT22;23928;47.562;7.508;2023-04-24T12:36:11;13.50;99.90
38118;DHT22;23928;47.562;7.508;2023-04-24T12:38:37;13.30;99.90
38118;DHT22;23928;47.562;7.508;2023-04-24T12:41:12;13.80;99.90
38118;DHT22;23928;47.562;7.508;2023-04-24T12:43:50;13.90;99.90
38118;DHT22;23928;47.562;7.508;2023-04-24T12:46:16;14.00;99.90
38118;DHT22;23928;47.562;7.508;2023-04-24T12:48:42;13.90;99.90
38118;DHT22;23928;47.562;7.508;2023-04-24T12:51:07;13.90;99.90
38118;DHT22;23928;47.562;7.508;2023-04-24T12:53:33;13.70;99.90
38118;DHT22;23928;47.562;7.508;2023-04-24T12:55:58;13.90;99.90
38118;DHT22;23928;47.562;7.508;2023-04-24T12:58:24;14.30;99.90
38118;DHT22;23928;47.562;7.508;2023-04-24T13:00:50;14.00;99.90
38118;DHT22;23928;47.562;7.508;2023-04-24T13:03:16;14.30;99.90
38118;DHT22;23928;47.562;7.508;2023-04-24T13:05:42;14.90;99.90
38118;DHT22;23928;47.562;7.508;2023-04-24T13:08:08;15.30;99.90
38118;DHT22;23928;47.562;7.508;2023-04-24T13:10:34;15.40;99.90
38118;DHT22;23928;47.562;7.508;2023-04-24T13:13:00;14.60;99.90
38118;DHT22;23928;47.562;7.508;2023-04-24T13:15:25;15.30;99.90
38118;DHT22;23928;47.562;7.508;2023-04-24T13:17:51;16.20;99.90
38118;DHT22;23928;47.562;7.508;2023-04-24T13:20:17;15.90;99.90
38118;DHT22;23928;47.562;7.508;2023-04-24T13:22:43;15.50;99.90
38118;DHT22;23928;47.562;7.508;2023-04-24T13:25:09;14.90;99.90
38118;DHT22;23928;47.562;7.508;2023-04-24T13:27:35;14.60;99.90
38118;DHT22;23928;47.562;7.508;2023-04-24T13:30:01;14.40;99.90
38118;DHT22;23928;47.562;7.508;2023-04-24T13:32:26;14.40;99.90
38118;DHT22;23928;47.562;7.508;2023-04-24T13:34:53;15.10;99.90
38118;DHT22;23928;47.562;7.508;2023-04-24T13:37:19;15.50;99.90
38118;DHT22;23928;47.562;7.508;2023-04-24T13:39:44;14.80;99.90
38118;DHT22;23928;47.562;7.508;2023-04-24T13:42:10;15.20;99.90
38118;DHT22;23928;47.562;7.508;2023-04-24T13:44:36;15.60;99.90
38118;DHT22;23928;47.562;7.508;2023-04-24T13:47:01;15.60;99.90
38118;DHT22;23928;47.562;7.508;2023-04-24T13:49:27;15.30;99.90
38118;DHT22;23928;47.562;7.508;2023-04-24T13:51:54;14.90;99.90
38118;DHT22;23928;47.562;7.508;2023-04-24T13:54:21;13.70;99.90
38118;DHT22;23928;47.562;7.508;2023-04-24T13:56:48;14.10;99.90
38118;DHT22;23928;47.562;7.508;2023-04-24T13:59:14;13.60;99.90
38118;DHT22;23928;47.562;7.508;2023-04-24T14:01:40;13.50;99.90
38118;DHT22;23928;47.562;7.508;2023-04-24T14:04:05;13.30;99.90
38118;DHT22;23928;47.562;7.508;2023-04-24T14:06:31;12.70;99.90
38118;DHT22;23928;47.562;7.508;2023-04-24T14:08:57;12.70;99.90
38118;DHT22;23928;47.562;7.508;2023-04-24T14:11:23;12.80;99.90
38118;DHT22;23928;47.562;7.508;2023-04-24T14:13:49;13.30;99.90
38118;DHT22;23928;47.562;7.508;2023-04-24T14:16:15;14.00;99.90
38118;DHT22;23928;47.562;7.508;2023-04-24T14:18:40;13.80;99.90
38118;DHT22;23928;47.562;7.508;2023-04-24T14:21:06;14.10;99.90
38118;DHT22;23928;47.562;7.508;2023-04-24T14:23:32;14.00;99.90
38118;DHT22;23928;47.562;7.508;2023-04-24T14:25:58;13.20;99.90
38118;DHT22;23928;47.562;7.508;2023-04-24T14:28:24;13.20;99.90
38118;DHT22;23928;47.562;7.508;2023-04-24T14:30:50;13.40;99.90
38118;DHT22;23928;47.562;7.508;2023-04-24T14:33:17;14.00;99.90
38118;DHT22;23928;47.562;7.508;2023-04-24T14:35:42;13.80;99.90
38118;DHT22;23928;47.562;7.508;2023-04-24T14:38:09;13.50;99.90
38118;DHT22;23928;47.562;7.508;2023-04-24T14:40:35;13.40;99.90
38118;DHT22;23928;47.562;7.508;2023-04-24T14:43:01;13.40;99.90
38118;DHT22;23928;47.562;7.508;2023-04-24T14:45:26;13.20;99.90
38118;DHT22;23928;47.562;7.508;2023-04-24T14:47:53;13.20;99.90
38118;DHT22;23928;47.562;7.508;2023-04-24T14:50:19;13.20;99.90
38118;DHT22;23928;47.562;7.508;2023-04-24T14:52:45;13.20;99.90
38118;DHT22;23928;47.562;7.508;2023-04-24T14:55:10;13.30;99.90
38118;DHT22;23928;47.562;7.508;2023-04-24T14:57:36;13.80;99.90
38118;DHT22;23928;47.562;7.508;2023-04-24T15:00:06;14.40;99.90
38118;DHT22;23928;47.562;7.508;2023-04-24T15:02:34;14.30;99.90
38118;DHT22;23928;47.562;7.508;2023-04-24T15:04:59;13.90;99.90
38118;DHT22;23928;47.562;7.508;2023-04-24T15:07:25;13.20;99.90
38118;DHT22;23928;47.562;7.508;2023-04-24T15:09:51;13.40;99.90
38118;DHT22;23928;47.562;7.508;2023-04-24T15:12:16;13.30;99.90
38118;DHT22;23928;47.562;7.508;2023-04-24T15:14:42;13.30;99.90
38118;DHT22;23928;47.562;7.508;2023-04-24T15:17:07;13.40;99.90
38118;DHT22;23928;47.562;7.508;2023-04-24T15:19:33;13.50;99.90
38118;DHT22;23928;47.562;7.508;2023-04-24T15:21:59;13.20;99.90
38118;DHT22;23928;47.562;7.508;2023-04-24T15:24:24;13.20;99.90
38118;DHT22;23928;47.562;7.508;2023-04-24T15:26:50;13.60;99.90
38118;DHT22;23928;47.562;7.508;2023-04-24T15:29:16;14.00;99.90
38118;DHT22;23928;47.562;7.508;2023-04-24T15:31:41;13.40;99.90